sensor_id;sensor_type;location;lat;lon;timestamp;pressure;altitude;pressure_sealevel;temperature;humidity
80118;BME280;69424;48.770;-1.564;2024-02-28T00:00:36;102335.50;;;7.71;79.47
80118;BME280;69424;48.770;-1.564;2024-02-28T00:01:30;102332.83;;;7.70;79.32
80118;BME280;69424;48.770;-1.564;2024-02-28T00:02:03;102333.47;;;7.69;79.65
80118;BME280;69424;48.770;-1.564;2024-02-28T00:04:20;102333.65;;;7.66;79.62
80118;BME280;69424;48.770;-1.564;2024-02-28T00:04:53;102336.08;;;7.65;79.76
80118;BME280;69424;48.770;-1.564;2024-02-28T00:05:28;102334.83;;;7.64;79.54
80118;BME280;69424;48.770;-1.564;2024-02-28T00:06:39;102332.83;;;7.63;79.70
80118;BME280;69424;48.770;-1.564;2024-02-28T00:07:13;102331.15;;;7.61;79.93
80118;BME280;69424;48.770;-1.564;2024-02-28T00:07:46;102334.41;;;7.63;79.87
80118;BME280;69424;48.770;-1.564;2024-02-28T00:08:23;102330.39;;;7.64;80.03
80118;BME280;69424;48.770;-1.564;2024-02-28T00:08:56;102329.92;;;7.65;79.77
80118;BME280;69424;48.770;-1.564;2024-02-28T00:09:30;102327.88;;;7.66;79.68
80118;BME280;69424;48.770;-1.564;2024-02-28T00:10:03;102328.44;;;7.67;79.72
80118;BME280;69424;48.770;-1.564;2024-02-28T00:10:36;102326.73;;;7.68;79.96
80118;BME280;69424;48.770;-1.564;2024-02-28T00:11:10;102328.41;;;7.70;79.81
80118;BME280;69424;48.770;-1.564;2024-02-28T00:11:45;102329.88;;;7.71;79.55
80118;BME280;69424;48.770;-1.564;2024-02-28T00:12:19;102327.84;;;7.73;79.77
80118;BME280;69424;48.770;-1.564;2024-02-28T00:12:52;102329.11;;;7.74;79.55
80118;BME280;69424;48.770;-1.564;2024-02-28T00:13:27;102327.92;;;7.75;79.57
80118;BME280;69424;48.770;-1.564;2024-02-28T00:14:00;102329.22;;;7.77;79.66
80118;BME280;69424;48.770;-1.564;2024-02-28T00:14:36;102331.06;;;7.78;79.83
80118;BME280;69424;48.770;-1.564;2024-02-28T00:15:10;102329.48;;;7.79;79.96
80118;BME280;69424;48.770;-1.564;2024-02-28T00:15:44;102332.56;;;7.80;79.84
80118;BME280;69424;48.770;-1.564;2024-02-28T00:16:17;102329.29;;;7.82;79.98
80118;BME280;69424;48.770;-1.564;2024-02-28T00:16:50;102330.73;;;7.82;80.32
80118;BME280;69424;48.770;-1.564;2024-02-28T00:17:24;102329.34;;;7.83;80.00
80118;BME280;69424;48.770;-1.564;2024-02-28T00:17:58;102334.66;;;7.84;79.94
80118;BME280;69424;48.770;-1.564;2024-02-28T00:18:31;102332.72;;;7.84;79.61
80118;BME280;69424;48.770;-1.564;2024-02-28T00:19:05;102337.15;;;7.84;79.73
80118;BME280;69424;48.770;-1.564;2024-02-28T00:19:38;102335.91;;;7.84;79.86
80118;BME280;69424;48.770;-1.564;2024-02-28T00:20:12;102335.55;;;7.84;79.63
80118;BME280;69424;48.770;-1.564;2024-02-28T00:20:49;102333.42;;;7.84;79.73
80118;BME280;69424;48.770;-1.564;2024-02-28T00:21:22;102336.27;;;7.84;79.52
80118;BME280;69424;48.770;-1.564;2024-02-28T00:21:58;102329.77;;;7.85;79.77
80118;BME280;69424;48.770;-1.564;2024-02-28T00:22:33;102332.14;;;7.86;79.85
80118;BME280;69424;48.770;-1.564;2024-02-28T00:23:06;102332.19;;;7.87;79.51
80118;BME280;69424;48.770;-1.564;2024-02-28T00:23:39;102331.69;;;7.88;79.42
80118;BME280;69424;48.770;-1.564;2024-02-28T00:24:13;102328.78;;;7.90;79.49
80118;BME280;69424;48.770;-1.564;2024-02-28T00:24:46;102328.68;;;7.92;79.80
80118;BME280;69424;48.770;-1.564;2024-02-28T00:25:20;102327.52;;;7.94;79.53
80118;BME280;69424;48.770;-1.564;2024-02-28T00:25:53;102330.23;;;7.95;79.61
80118;BME280;69424;48.770;-1.564;2024-02-28T00:26:26;102330.51;;;7.97;79.27
80118;BME280;69424;48.770;-1.564;2024-02-28T00:27:03;102327.21;;;7.98;79.49
80118;BME280;69424;48.770;-1.564;2024-02-28T00:27:37;102321.27;;;7.99;79.45
80118;BME280;69424;48.770;-1.564;2024-02-28T00:28:10;102326.27;;;8.01;79.32
80118;BME280;69424;48.770;-1.564;2024-02-28T00:28:43;102324.56;;;8.02;79.40
80118;BME280;69424;48.770;-1.564;2024-02-28T00:29:17;102322.82;;;8.03;79.05
80118;BME280;69424;48.770;-1.564;2024-02-28T00:29:50;102320.55;;;8.03;79.09
80118;BME280;69424;48.770;-1.564;2024-02-28T00:30:23;102318.81;;;8.03;79.11
80118;BME280;69424;48.770;-1.564;2024-02-28T00:30:57;102322.86;;;8.04;79.39
80118;BME280;69424;48.770;-1.564;2024-02-28T00:31:30;102321.65;;;8.04;79.00
80118;BME280;69424;48.770;-1.564;2024-02-28T00:32:03;102321.31;;;8.04;79.34
80118;BME280;69424;48.770;-1.564;2024-02-28T00:32:37;102322.73;;;8.05;79.21
80118;BME280;69424;48.770;-1.564;2024-02-28T00:33:10;102318.70;;;8.05;79.26
80118;BME280;69424;48.770;-1.564;2024-02-28T00:33:44;102318.90;;;8.05;79.02
80118;BME280;69424;48.770;-1.564;2024-02-28T00:34:18;102322.59;;;8.05;78.83
80118;BME280;69424;48.770;-1.564;2024-02-28T00:34:59;102319.95;;;8.06;78.71
80118;BME280;69424;48.770;-1.564;2024-02-28T00:35:33;102320.49;;;8.06;78.73
80118;BME280;69424;48.770;-1.564;2024-02-28T00:36:07;102316.10;;;8.06;78.97
80118;BME280;69424;48.770;-1.564;2024-02-28T00:36:54;102319.33;;;8.07;78.75
80118;BME280;69424;48.770;-1.564;2024-02-28T00:37:28;102317.92;;;8.08;78.75
80118;BME280;69424;48.770;-1.564;2024-02-28T00:38:01;102315.70;;;8.08;78.83
80118;BME280;69424;48.770;-1.564;2024-02-28T00:38:36;102312.89;;;8.09;79.03
80118;BME280;69424;48.770;-1.564;2024-02-28T00:39:49;102315.41;;;8.10;78.22
80118;BME280;69424;48.770;-1.564;2024-02-28T00:40:22;102316.80;;;8.10;78.22
80118;BME280;69424;48.770;-1.564;2024-02-28T00:40:57;102315.56;;;8.10;78.41
80118;BME280;69424;48.770;-1.564;2024-02-28T00:41:35;102315.21;;;8.10;78.29
80118;BME280;69424;48.770;-1.564;2024-02-28T00:42:11;102317.30;;;8.10;78.15
80118;BME280;69424;48.770;-1.564;2024-02-28T00:42:47;102318.16;;;8.09;78.07
80118;BME280;69424;48.770;-1.564;2024-02-28T00:43:20;102310.02;;;8.08;78.43
80118;BME280;69424;48.770;-1.564;2024-02-28T00:43:53;102310.70;;;8.07;78.68
80118;BME280;69424;48.770;-1.564;2024-02-28T00:44:28;102312.29;;;8.07;78.41
80118;BME280;69424;48.770;-1.564;2024-02-28T00:45:10;102315.48;;;8.08;78.47
80118;BME280;69424;48.770;-1.564;2024-02-28T00:45:47;102314.58;;;8.07;78.21
80118;BME280;69424;48.770;-1.564;2024-02-28T00:46:20;102313.52;;;8.07;78.39
80118;BME280;69424;48.770;-1.564;2024-02-28T00:47:03;102313.48;;;8.06;78.49
80118;BME280;69424;48.770;-1.564;2024-02-28T00:47:38;102313.48;;;8.06;78.43
80118;BME280;69424;48.770;-1.564;2024-02-28T00:48:14;102314.02;;;8.07;78.53
80118;BME280;69424;48.770;-1.564;2024-02-28T00:48:48;102312.79;;;8.07;78.73
80118;BME280;69424;48.770;-1.564;2024-02-28T00:49:21;102315.95;;;8.06;78.59
80118;BME280;69424;48.770;-1.564;2024-02-28T00:49:54;102313.15;;;8.07;78.59
80118;BME280;69424;48.770;-1.564;2024-02-28T00:50:27;102312.63;;;8.07;78.61
80118;BME280;69424;48.770;-1.564;2024-02-28T00:51:03;102316.58;;;8.09;78.61
80118;BME280;69424;48.770;-1.564;2024-02-28T00:51:43;102316.62;;;8.10;78.54
80118;BME280;69424;48.770;-1.564;2024-02-28T00:52:19;102320.02;;;8.11;78.39
80118;BME280;69424;48.770;-1.564;2024-02-28T00:52:52;102313.55;;;8.12;78.40
80118;BME280;69424;48.770;-1.564;2024-02-28T00:53:26;102318.52;;;8.13;78.43
80118;BME280;69424;48.770;-1.564;2024-02-28T00:53:59;102317.86;;;8.14;78.32
80118;BME280;69424;48.770;-1.564;2024-02-28T00:54:36;102315.77;;;8.15;78.32
80118;BME280;69424;48.770;-1.564;2024-02-28T00:55:10;102317.94;;;8.16;78.41
80118;BME280;69424;48.770;-1.564;2024-02-28T00:55:45;102315.48;;;8.16;78.40
80118;BME280;69424;48.770;-1.564;2024-02-28T00:56:19;102318.34;;;8.17;78.46
80118;BME280;69424;48.770;-1.564;2024-02-28T00:56:52;102320.45;;;8.17;78.32
80118;BME280;69424;48.770;-1.564;2024-02-28T00:57:26;102317.12;;;8.17;78.29
80118;BME280;69424;48.770;-1.564;2024-02-28T00:58:03;102316.41;;;8.17;78.25
80118;BME280;69424;48.770;-1.564;2024-02-28T00:58:36;102316.42;;;8.17;78.31
80118;BME280;69424;48.770;-1.564;2024-02-28T00:59:10;102316.73;;;8.17;78.15
80118;BME280;69424;48.770;-1.564;2024-02-28T00:59:45;102317.58;;;8.15;78.16
80118;BME280;69424;48.770;-1.564;2024-02-28T01:00:19;102321.23;;;8.15;78.27
80118;BME280;69424;48.770;-1.564;2024-02-28T01:00:52;102317.67;;;8.14;78.21
80118;BME280;69424;48.770;-1.564;2024-02-28T01:01:26;102318.19;;;8.14;78.39
80118;BME280;69424;48.770;-1.564;2024-02-28T01:02:00;102319.58;;;8.13;78.33
80118;BME280;69424;48.770;-1.564;2024-02-28T01:02:34;102319.04;;;8.13;78.72
80118;BME280;69424;48.770;-1.564;2024-02-28T01:03:41;102318.66;;;8.12;78.18
80118;BME280;69424;48.770;-1.564;2024-02-28T01:04:14;102318.95;;;8.11;78.52
80118;BME280;69424;48.770;-1.564;2024-02-28T01:04:49;102315.44;;;8.11;78.80
80118;BME280;69424;48.770;-1.564;2024-02-28T01:05:32;102316.02;;;8.12;78.55
80118;BME280;69424;48.770;-1.564;2024-02-28T01:06:06;102318.31;;;8.12;78.54
80118;BME280;69424;48.770;-1.564;2024-02-28T01:06:39;102313.59;;;8.13;78.58
80118;BME280;69424;48.770;-1.564;2024-02-28T01:07:13;102313.26;;;8.14;78.83
80118;BME280;69424;48.770;-1.564;2024-02-28T01:07:46;102310.13;;;8.15;78.45
80118;BME280;69424;48.770;-1.564;2024-02-28T01:08:21;102312.28;;;8.16;78.63
80118;BME280;69424;48.770;-1.564;2024-02-28T01:08:55;102303.79;;;8.15;78.59
80118;BME280;69424;48.770;-1.564;2024-02-28T01:09:28;102306.54;;;8.17;78.75
80118;BME280;69424;48.770;-1.564;2024-02-28T01:10:09;102301.63;;;8.18;78.66
80118;BME280;69424;48.770;-1.564;2024-02-28T01:11:00;102299.90;;;8.18;78.83
80118;BME280;69424;48.770;-1.564;2024-02-28T01:11:34;102292.13;;;8.18;78.63
80118;BME280;69424;48.770;-1.564;2024-02-28T01:12:07;102291.94;;;8.18;78.82
80118;BME280;69424;48.770;-1.564;2024-02-28T01:12:40;102289.62;;;8.17;78.27
80118;BME280;69424;48.770;-1.564;2024-02-28T01:13:16;102291.02;;;8.17;78.53
80118;BME280;69424;48.770;-1.564;2024-02-28T01:14:18;102287.07;;;8.15;78.75
80118;BME280;69424;48.770;-1.564;2024-02-28T01:14:51;102286.66;;;8.14;78.57
80118;BME280;69424;48.770;-1.564;2024-02-28T01:15:33;102290.34;;;8.13;78.71
80118;BME280;69424;48.770;-1.564;2024-02-28T01:16:39;102291.43;;;8.10;78.87
80118;BME280;69424;48.770;-1.564;2024-02-28T01:17:12;102288.56;;;8.09;78.91
80118;BME280;69424;48.770;-1.564;2024-02-28T01:17:45;102291.51;;;8.07;78.89
80118;BME280;69424;48.770;-1.564;2024-02-28T01:18:19;102293.45;;;8.08;79.05
80118;BME280;69424;48.770;-1.564;2024-02-28T01:18:52;102293.80;;;8.08;78.83
80118;BME280;69424;48.770;-1.564;2024-02-28T01:19:25;102297.35;;;8.08;78.68
80118;BME280;69424;48.770;-1.564;2024-02-28T01:19:59;102296.48;;;8.09;78.72
80118;BME280;69424;48.770;-1.564;2024-02-28T01:20:32;102296.53;;;8.10;78.94
80118;BME280;69424;48.770;-1.564;2024-02-28T01:21:05;102293.77;;;8.11;78.85
80118;BME280;69424;48.770;-1.564;2024-02-28T01:21:38;102297.99;;;8.11;78.86
80118;BME280;69424;48.770;-1.564;2024-02-28T01:22:12;102301.23;;;8.12;78.71
80118;BME280;69424;48.770;-1.564;2024-02-28T01:22:46;102301.41;;;8.13;78.78
80118;BME280;69424;48.770;-1.564;2024-02-28T01:23:19;102301.80;;;8.13;78.72
80118;BME280;69424;48.770;-1.564;2024-02-28T01:23:52;102305.35;;;8.14;78.90
80118;BME280;69424;48.770;-1.564;2024-02-28T01:24:26;102308.57;;;8.15;78.82
80118;BME280;69424;48.770;-1.564;2024-02-28T01:24:59;102306.48;;;8.16;78.68
80118;BME280;69424;48.770;-1.564;2024-02-28T01:25:38;102307.77;;;8.17;78.43
80118;BME280;69424;48.770;-1.564;2024-02-28T01:26:12;102307.60;;;8.17;78.20
80118;BME280;69424;48.770;-1.564;2024-02-28T01:26:45;102308.48;;;8.17;78.66
80118;BME280;69424;48.770;-1.564;2024-02-28T01:27:18;102309.36;;;8.17;78.55
80118;BME280;69424;48.770;-1.564;2024-02-28T01:27:51;102309.90;;;8.17;78.75
80118;BME280;69424;48.770;-1.564;2024-02-28T01:28:25;102308.34;;;8.18;78.61
80118;BME280;69424;48.770;-1.564;2024-02-28T01:29:00;102307.98;;;8.18;78.46
80118;BME280;69424;48.770;-1.564;2024-02-28T01:29:33;102308.00;;;8.18;78.39
80118;BME280;69424;48.770;-1.564;2024-02-28T01:30:06;102303.42;;;8.18;78.28
80118;BME280;69424;48.770;-1.564;2024-02-28T01:30:39;102303.57;;;8.18;78.64
80118;BME280;69424;48.770;-1.564;2024-02-28T01:31:13;102303.38;;;8.17;78.59
80118;BME280;69424;48.770;-1.564;2024-02-28T01:31:46;102303.19;;;8.17;78.32
80118;BME280;69424;48.770;-1.564;2024-02-28T01:32:19;102300.88;;;8.17;78.27
80118;BME280;69424;48.770;-1.564;2024-02-28T01:33:09;102299.29;;;8.16;78.53
80118;BME280;69424;48.770;-1.564;2024-02-28T01:34:01;102303.31;;;8.16;78.07
80118;BME280;69424;48.770;-1.564;2024-02-28T01:34:34;102302.73;;;8.15;78.23
80118;BME280;69424;48.770;-1.564;2024-02-28T01:35:08;102303.29;;;8.15;78.22
80118;BME280;69424;48.770;-1.564;2024-02-28T01:35:54;102298.86;;;8.15;78.60
80118;BME280;69424;48.770;-1.564;2024-02-28T01:36:31;102297.83;;;8.15;78.26
80118;BME280;69424;48.770;-1.564;2024-02-28T01:37:04;102297.68;;;8.16;78.11
80118;BME280;69424;48.770;-1.564;2024-02-28T01:37:37;102295.56;;;8.16;78.46
80118;BME280;69424;48.770;-1.564;2024-02-28T01:38:26;102296.79;;;8.16;78.40
80118;BME280;69424;48.770;-1.564;2024-02-28T01:39:02;102296.27;;;8.16;78.28
80118;BME280;69424;48.770;-1.564;2024-02-28T01:39:36;102293.98;;;8.16;78.35
80118;BME280;69424;48.770;-1.564;2024-02-28T01:40:10;102291.91;;;8.17;78.62
80118;BME280;69424;48.770;-1.564;2024-02-28T01:40:46;102289.98;;;8.17;78.27
80118;BME280;69424;48.770;-1.564;2024-02-28T01:41:20;102290.55;;;8.18;78.37
80118;BME280;69424;48.770;-1.564;2024-02-28T01:41:54;102292.86;;;8.18;78.42
80118;BME280;69424;48.770;-1.564;2024-02-28T01:42:27;102295.72;;;8.19;78.30
80118;BME280;69424;48.770;-1.564;2024-02-28T01:43:06;102294.16;;;8.20;78.47
80118;BME280;69424;48.770;-1.564;2024-02-28T01:43:39;102294.70;;;8.20;78.54
80118;BME280;69424;48.770;-1.564;2024-02-28T01:44:13;102295.23;;;8.20;78.65
80118;BME280;69424;48.770;-1.564;2024-02-28T01:44:47;102296.27;;;8.20;78.07
80118;BME280;69424;48.770;-1.564;2024-02-28T01:45:24;102295.34;;;8.19;78.50
80118;BME280;69424;48.770;-1.564;2024-02-28T01:46:00;102293.91;;;8.18;78.29
80118;BME280;69424;48.770;-1.564;2024-02-28T01:46:39;102291.92;;;8.17;78.02
80118;BME280;69424;48.770;-1.564;2024-02-28T01:47:13;102295.05;;;8.16;78.22
80118;BME280;69424;48.770;-1.564;2024-02-28T01:47:46;102292.68;;;8.15;78.32
80118;BME280;69424;48.770;-1.564;2024-02-28T01:48:21;102293.89;;;8.14;78.57
80118;BME280;69424;48.770;-1.564;2024-02-28T01:48:57;102293.35;;;8.13;78.40
80118;BME280;69424;48.770;-1.564;2024-02-28T01:49:31;102290.10;;;8.12;78.64
80118;BME280;69424;48.770;-1.564;2024-02-28T01:50:05;102291.87;;;8.12;78.26
80118;BME280;69424;48.770;-1.564;2024-02-28T01:50:41;102288.59;;;8.09;78.40
80118;BME280;69424;48.770;-1.564;2024-02-28T01:51:15;102291.45;;;8.10;78.55
80118;BME280;69424;48.770;-1.564;2024-02-28T01:51:50;102289.71;;;8.11;78.77
80118;BME280;69424;48.770;-1.564;2024-02-28T01:52:24;102289.36;;;8.11;78.59
80118;BME280;69424;48.770;-1.564;2024-02-28T01:52:58;102290.46;;;8.12;78.60
80118;BME280;69424;48.770;-1.564;2024-02-28T01:53:31;102290.66;;;8.13;78.54
80118;BME280;69424;48.770;-1.564;2024-02-28T01:54:05;102289.61;;;8.13;78.74
80118;BME280;69424;48.770;-1.564;2024-02-28T01:54:39;102286.14;;;8.14;78.73
80118;BME280;69424;48.770;-1.564;2024-02-28T01:55:12;102283.86;;;8.15;78.80
80118;BME280;69424;48.770;-1.564;2024-02-28T01:55:47;102284.80;;;8.16;78.91
80118;BME280;69424;48.770;-1.564;2024-02-28T01:56:22;102283.09;;;8.17;78.64
80118;BME280;69424;48.770;-1.564;2024-02-28T01:56:56;102280.14;;;8.18;78.68
80118;BME280;69424;48.770;-1.564;2024-02-28T01:57:29;102285.88;;;8.20;79.11
80118;BME280;69424;48.770;-1.564;2024-02-28T01:58:05;102281.49;;;8.21;78.66
80118;BME280;69424;48.770;-1.564;2024-02-28T01:58:47;102283.48;;;8.21;78.80
80118;BME280;69424;48.770;-1.564;2024-02-28T01:59:23;102283.67;;;8.22;78.65
80118;BME280;69424;48.770;-1.564;2024-02-28T01:59:57;102284.70;;;8.21;78.48
80118;BME280;69424;48.770;-1.564;2024-02-28T02:00:33;102286.98;;;8.21;78.51
80118;BME280;69424;48.770;-1.564;2024-02-28T02:01:07;102287.30;;;8.20;78.51
80118;BME280;69424;48.770;-1.564;2024-02-28T02:01:43;102284.06;;;8.19;78.55
80118;BME280;69424;48.770;-1.564;2024-02-28T02:02:16;102286.51;;;8.18;78.45
80118;BME280;69424;48.770;-1.564;2024-02-28T02:02:50;102284.35;;;8.18;78.47
80118;BME280;69424;48.770;-1.564;2024-02-28T02:03:44;102283.75;;;8.16;78.31
80118;BME280;69424;48.770;-1.564;2024-02-28T02:04:17;102282.99;;;8.15;78.59
80118;BME280;69424;48.770;-1.564;2024-02-28T02:04:51;102284.02;;;8.14;78.62
80118;BME280;69424;48.770;-1.564;2024-02-28T02:05:28;102284.34;;;8.13;78.63
80118;BME280;69424;48.770;-1.564;2024-02-28T02:06:03;102287.14;;;8.13;78.62
80118;BME280;69424;48.770;-1.564;2024-02-28T02:06:38;102286.08;;;8.13;78.72
80118;BME280;69424;48.770;-1.564;2024-02-28T02:07:17;102285.73;;;8.13;78.83
80118;BME280;69424;48.770;-1.564;2024-02-28T02:07:50;102286.59;;;8.12;78.86
80118;BME280;69424;48.770;-1.564;2024-02-28T02:08:24;102283.42;;;8.12;78.64
80118;BME280;69424;48.770;-1.564;2024-02-28T02:08:57;102287.16;;;8.13;78.75
80118;BME280;69424;48.770;-1.564;2024-02-28T02:09:31;102285.11;;;8.15;78.81
80118;BME280;69424;48.770;-1.564;2024-02-28T02:10:15;102284.30;;;8.16;78.84
80118;BME280;69424;48.770;-1.564;2024-02-28T02:10:48;102287.19;;;8.18;79.04
80118;BME280;69424;48.770;-1.564;2024-02-28T02:11:22;102285.46;;;8.18;78.98
80118;BME280;69424;48.770;-1.564;2024-02-28T02:12:06;102284.83;;;8.20;79.13
80118;BME280;69424;48.770;-1.564;2024-02-28T02:13:07;102283.41;;;8.20;79.19
80118;BME280;69424;48.770;-1.564;2024-02-28T02:13:51;102286.41;;;8.21;79.95
80118;BME280;69424;48.770;-1.564;2024-02-28T02:14:25;102288.34;;;8.20;79.62
80118;BME280;69424;48.770;-1.564;2024-02-28T02:14:58;102290.64;;;8.20;79.89
80118;BME280;69424;48.770;-1.564;2024-02-28T02:15:32;102289.92;;;8.20;80.32
80118;BME280;69424;48.770;-1.564;2024-02-28T02:16:05;102292.55;;;8.20;80.19
80118;BME280;69424;48.770;-1.564;2024-02-28T02:16:39;102291.14;;;8.19;80.23
80118;BME280;69424;48.770;-1.564;2024-02-28T02:17:12;102294.86;;;8.20;80.16
80118;BME280;69424;48.770;-1.564;2024-02-28T02:17:45;102290.67;;;8.21;80.35
80118;BME280;69424;48.770;-1.564;2024-02-28T02:18:18;102293.52;;;8.21;80.13
80118;BME280;69424;48.770;-1.564;2024-02-28T02:18:52;102292.68;;;8.22;80.40
80118;BME280;69424;48.770;-1.564;2024-02-28T02:19:25;102295.19;;;8.23;80.24
80118;BME280;69424;48.770;-1.564;2024-02-28T02:19:59;102294.19;;;8.25;80.40
80118;BME280;69424;48.770;-1.564;2024-02-28T02:20:37;102296.73;;;8.26;80.64
80118;BME280;69424;48.770;-1.564;2024-02-28T02:21:15;102291.50;;;8.28;80.48
80118;BME280;69424;48.770;-1.564;2024-02-28T02:21:52;102289.45;;;8.30;80.68
80118;BME280;69424;48.770;-1.564;2024-02-28T02:23:01;102286.59;;;8.33;80.71
80118;BME280;69424;48.770;-1.564;2024-02-28T02:23:36;102282.77;;;8.34;80.70
80118;BME280;69424;48.770;-1.564;2024-02-28T02:24:14;102283.59;;;8.37;81.12
80118;BME280;69424;48.770;-1.564;2024-02-28T02:24:58;102284.91;;;8.38;80.83
80118;BME280;69424;48.770;-1.564;2024-02-28T02:25:46;102284.30;;;8.40;81.04
80118;BME280;69424;48.770;-1.564;2024-02-28T02:26:20;102284.20;;;8.42;80.77
80118;BME280;69424;48.770;-1.564;2024-02-28T02:26:58;102282.34;;;8.43;80.80
80118;BME280;69424;48.770;-1.564;2024-02-28T02:27:35;102280.62;;;8.45;80.59
80118;BME280;69424;48.770;-1.564;2024-02-28T02:28:20;102280.63;;;8.45;80.75
80118;BME280;69424;48.770;-1.564;2024-02-28T02:28:54;102277.64;;;8.45;80.76
80118;BME280;69424;48.770;-1.564;2024-02-28T02:29:27;102280.98;;;8.45;80.28
80118;BME280;69424;48.770;-1.564;2024-02-28T02:30:02;102281.55;;;8.46;80.66
80118;BME280;69424;48.770;-1.564;2024-02-28T02:30:35;102280.98;;;8.45;80.25
80118;BME280;69424;48.770;-1.564;2024-02-28T02:31:08;102281.14;;;8.45;80.16
80118;BME280;69424;48.770;-1.564;2024-02-28T02:31:43;102283.23;;;8.44;79.94
80118;BME280;69424;48.770;-1.564;2024-02-28T02:32:16;102281.60;;;8.43;79.61
80118;BME280;69424;48.770;-1.564;2024-02-28T02:32:57;102280.29;;;8.42;79.81
80118;BME280;69424;48.770;-1.564;2024-02-28T02:33:30;102280.77;;;8.41;79.79
80118;BME280;69424;48.770;-1.564;2024-02-28T02:34:04;102277.23;;;8.40;79.57
80118;BME280;69424;48.770;-1.564;2024-02-28T02:34:37;102278.46;;;8.40;79.64
80118;BME280;69424;48.770;-1.564;2024-02-28T02:35:10;102281.09;;;8.40;79.35
80118;BME280;69424;48.770;-1.564;2024-02-28T02:35:44;102277.86;;;8.39;79.50
80118;BME280;69424;48.770;-1.564;2024-02-28T02:36:19;102274.50;;;8.38;79.19
80118;BME280;69424;48.770;-1.564;2024-02-28T02:36:52;102269.89;;;8.38;79.21
80118;BME280;69424;48.770;-1.564;2024-02-28T02:37:25;102274.32;;;8.38;79.27
80118;BME280;69424;48.770;-1.564;2024-02-28T02:37:59;102273.42;;;8.38;79.24
80118;BME280;69424;48.770;-1.564;2024-02-28T02:38:46;102275.18;;;8.38;79.14
80118;BME280;69424;48.770;-1.564;2024-02-28T02:39:20;102272.72;;;8.38;79.43
80118;BME280;69424;48.770;-1.564;2024-02-28T02:39:53;102271.30;;;8.38;79.39
80118;BME280;69424;48.770;-1.564;2024-02-28T02:40:27;102272.38;;;8.38;79.54
80118;BME280;69424;48.770;-1.564;2024-02-28T02:41:11;102269.91;;;8.38;79.48
80118;BME280;69424;48.770;-1.564;2024-02-28T02:41:44;102266.39;;;8.38;79.29
80118;BME280;69424;48.770;-1.564;2024-02-28T02:42:17;102266.53;;;8.38;79.16
80118;BME280;69424;48.770;-1.564;2024-02-28T02:42:50;102266.33;;;8.37;79.35
80118;BME280;69424;48.770;-1.564;2024-02-28T02:43:24;102264.14;;;8.36;79.12
80118;BME280;69424;48.770;-1.564;2024-02-28T02:43:57;102266.23;;;8.35;79.14
80118;BME280;69424;48.770;-1.564;2024-02-28T02:44:31;102263.73;;;8.34;79.39
80118;BME280;69424;48.770;-1.564;2024-02-28T02:45:04;102263.02;;;8.33;79.49
80118;BME280;69424;48.770;-1.564;2024-02-28T02:45:37;102265.63;;;8.33;79.86
80118;BME280;69424;48.770;-1.564;2024-02-28T02:46:11;102266.48;;;8.32;79.59
80118;BME280;69424;48.770;-1.564;2024-02-28T02:46:44;102266.11;;;8.32;79.63
80118;BME280;69424;48.770;-1.564;2024-02-28T02:47:17;102267.84;;;8.31;79.89
80118;BME280;69424;48.770;-1.564;2024-02-28T02:47:50;102268.35;;;8.30;79.72
80118;BME280;69424;48.770;-1.564;2024-02-28T02:48:24;102266.73;;;8.30;79.69
80118;BME280;69424;48.770;-1.564;2024-02-28T02:48:57;102270.05;;;8.29;80.11
80118;BME280;69424;48.770;-1.564;2024-02-28T02:49:31;102267.94;;;8.29;79.53
80118;BME280;69424;48.770;-1.564;2024-02-28T02:50:05;102271.45;;;8.29;79.73
80118;BME280;69424;48.770;-1.564;2024-02-28T02:50:38;102271.11;;;8.29;79.81
80118;BME280;69424;48.770;-1.564;2024-02-28T02:51:12;102273.39;;;8.29;79.83
80118;BME280;69424;48.770;-1.564;2024-02-28T02:51:48;102271.10;;;8.29;80.00
80118;BME280;69424;48.770;-1.564;2024-02-28T02:52:33;102269.74;;;8.30;80.03
80118;BME280;69424;48.770;-1.564;2024-02-28T02:53:18;102267.30;;;8.30;80.39
80118;BME280;69424;48.770;-1.564;2024-02-28T02:53:52;102267.81;;;8.31;80.04
80118;BME280;69424;48.770;-1.564;2024-02-28T02:54:27;102267.27;;;8.30;80.48
80118;BME280;69424;48.770;-1.564;2024-02-28T02:55:00;102266.02;;;8.30;80.16
80118;BME280;69424;48.770;-1.564;2024-02-28T02:55:33;102266.16;;;8.29;80.20
80118;BME280;69424;48.770;-1.564;2024-02-28T02:56:06;102265.61;;;8.28;80.35
80118;BME280;69424;48.770;-1.564;2024-02-28T02:56:42;102261.94;;;8.29;80.60
80118;BME280;69424;48.770;-1.564;2024-02-28T02:57:16;102258.77;;;8.29;80.78
80118;BME280;69424;48.770;-1.564;2024-02-28T02:57:49;102259.46;;;8.29;80.81
80118;BME280;69424;48.770;-1.564;2024-02-28T02:58:23;102259.30;;;8.29;81.17
80118;BME280;69424;48.770;-1.564;2024-02-28T02:58:59;102259.14;;;8.30;80.97
80118;BME280;69424;48.770;-1.564;2024-02-28T02:59:32;102256.14;;;8.30;81.19
80118;BME280;69424;48.770;-1.564;2024-02-28T03:00:08;102254.17;;;8.29;81.37
80118;BME280;69424;48.770;-1.564;2024-02-28T03:00:44;102254.86;;;8.29;81.17
80118;BME280;69424;48.770;-1.564;2024-02-28T03:01:17;102254.69;;;8.29;81.18
80118;BME280;69424;48.770;-1.564;2024-02-28T03:01:53;102256.58;;;8.28;81.39
80118;BME280;69424;48.770;-1.564;2024-02-28T03:02:26;102257.43;;;8.26;81.29
80118;BME280;69424;48.770;-1.564;2024-02-28T03:03:00;102255.46;;;8.26;81.63
80118;BME280;69424;48.770;-1.564;2024-02-28T03:03:33;102258.10;;;8.26;81.76
80118;BME280;69424;48.770;-1.564;2024-02-28T03:04:06;102256.84;;;8.25;82.00
80118;BME280;69424;48.770;-1.564;2024-02-28T03:04:40;102256.31;;;8.25;82.27
80118;BME280;69424;48.770;-1.564;2024-02-28T03:05:14;102256.64;;;8.25;82.47
80118;BME280;69424;48.770;-1.564;2024-02-28T03:05:55;102261.05;;;8.25;82.53
80118;BME280;69424;48.770;-1.564;2024-02-28T03:06:28;102257.69;;;8.24;82.14
80118;BME280;69424;48.770;-1.564;2024-02-28T03:07:04;102256.14;;;8.25;82.20
80118;BME280;69424;48.770;-1.564;2024-02-28T03:07:37;102257.19;;;8.25;83.07
80118;BME280;69424;48.770;-1.564;2024-02-28T03:08:10;102259.34;;;8.26;83.16
80118;BME280;69424;48.770;-1.564;2024-02-28T03:08:44;102258.98;;;8.26;83.06
80118;BME280;69424;48.770;-1.564;2024-02-28T03:09:17;102254.56;;;8.25;82.99